sensor_id;sensor_type;location;lat;lon;timestamp;P1;durP1;ratioP1;P2;durP2;ratioP2
7426;SDS011;3755;59.316;18.092;2022-10-31T00:01:37;7.50;;;3.33;;
7426;SDS011;3755;59.316;18.092;2022-10-31T00:04:05;4.90;;;2.80;;
7426;SDS011;3755;59.316;18.092;2022-10-31T00:06:35;8.53;;;3.50;;
7426;SDS011;3755;59.316;18.092;2022-10-31T00:09:03;8.93;;;3.33;;
7426;SDS011;3755;59.316;18.092;2022-10-31T00:11:31;6.23;;;2.90;;
7426;SDS011;3755;59.316;18.092;2022-10-31T00:13:58;8.20;;;3.80;;
7426;SDS011;3755;59.316;18.092;2022-10-31T00:16:27;5.43;;;2.60;;
7426;SDS011;3755;59.316;18.092;2022-10-31T00:18:56;5.83;;;3.40;;
7426;SDS011;3755;59.316;18.092;2022-10-31T00:21:25;6.60;;;3.43;;
7426;SDS011;3755;59.316;18.092;2022-10-31T00:23:54;5.63;;;3.20;;
7426;SDS011;3755;59.316;18.092;2022-10-31T00:26:24;4.37;;;2.83;;
7426;SDS011;3755;59.316;18.092;2022-10-31T00:28:55;6.53;;;3.40;;
7426;SDS011;3755;59.316;18.092;2022-10-31T00:31:23;5.07;;;3.23;;
7426;SDS011;3755;59.316;18.092;2022-10-31T00:33:51;6.67;;;3.43;;
7426;SDS011;3755;59.316;18.092;2022-10-31T00:36:19;8.20;;;3.47;;
7426;SDS011;3755;59.316;18.092;2022-10-31T00:38:47;5.80;;;3.20;;
7426;SDS011;3755;59.316;18.092;2022-10-31T00:41:17;7.10;;;3.60;;
7426;SDS011;3755;59.316;18.092;2022-10-31T00:43:44;5.73;;;3.10;;
7426;SDS011;3755;59.316;18.092;2022-10-31T00:46:12;6.93;;;3.30;;
7426;SDS011;3755;59.316;18.092;2022-10-31T00:48:39;8.90;;;3.40;;
7426;SDS011;3755;59.316;18.092;2022-10-31T00:51:08;6.23;;;3.53;;
7426;SDS011;3755;59.316;18.092;2022-10-31T00:53:35;7.73;;;3.40;;
7426;SDS011;3755;59.316;18.092;2022-10-31T00:56:05;5.13;;;3.50;;
7426;SDS011;3755;59.316;18.092;2022-10-31T00:58:39;6.77;;;3.33;;
7426;SDS011;3755;59.316;18.092;2022-10-31T01:01:08;6.97;;;3.43;;
7426;SDS011;3755;59.316;18.092;2022-10-31T01:03:35;5.80;;;3.30;;
7426;SDS011;3755;59.316;18.092;2022-10-31T01:06:05;6.37;;;3.20;;
7426;SDS011;3755;59.316;18.092;2022-10-31T01:08:34;6.40;;;3.43;;
7426;SDS011;3755;59.316;18.092;2022-10-31T01:11:10;5.80;;;3.13;;
7426;SDS011;3755;59.316;18.092;2022-10-31T01:13:41;6.20;;;3.20;;
7426;SDS011;3755;59.316;18.092;2022-10-31T01:16:10;4.10;;;3.20;;
7426;SDS011;3755;59.316;18.092;2022-10-31T01:18:39;5.50;;;2.93;;
7426;SDS011;3755;59.316;18.092;2022-10-31T01:21:08;4.73;;;3.13;;
7426;SDS011;3755;59.316;18.092;2022-10-31T01:23:38;10.87;;;3.90;;
7426;SDS011;3755;59.316;18.092;2022-10-31T01:26:07;8.00;;;3.43;;
7426;SDS011;3755;59.316;18.092;2022-10-31T01:28:36;8.07;;;3.10;;
7426;SDS011;3755;59.316;18.092;2022-10-31T01:31:08;6.67;;;2.80;;
7426;SDS011;3755;59.316;18.092;2022-10-31T01:33:35;6.43;;;3.27;;
7426;SDS011;3755;59.316;18.092;2022-10-31T01:36:13;5.87;;;3.03;;
7426;SDS011;3755;59.316;18.092;2022-10-31T01:38:56;4.23;;;3.30;;
7426;SDS011;3755;59.316;18.092;2022-10-31T01:41:26;6.70;;;3.10;;
7426;SDS011;3755;59.316;18.092;2022-10-31T01:43:57;6.00;;;3.50;;
7426;SDS011;3755;59.316;18.092;2022-10-31T01:46:29;5.37;;;2.80;;
7426;SDS011;3755;59.316;18.092;2022-10-31T01:49:00;5.87;;;3.17;;
7426;SDS011;3755;59.316;18.092;2022-10-31T01:51:47;7.83;;;3.20;;
7426;SDS011;3755;59.316;18.092;2022-10-31T01:54:18;6.77;;;3.40;;
7426;SDS011;3755;59.316;18.092;2022-10-31T01:56:51;6.17;;;3.27;;
7426;SDS011;3755;59.316;18.092;2022-10-31T01:59:21;3.87;;;2.70;;
7426;SDS011;3755;59.316;18.092;2022-10-31T02:01:56;6.53;;;3.37;;
7426;SDS011;3755;59.316;18.092;2022-10-31T02:04:23;6.50;;;3.43;;
7426;SDS011;3755;59.316;18.092;2022-10-31T02:06:55;9.83;;;3.33;;
7426;SDS011;3755;59.316;18.092;2022-10-31T02:09:25;7.67;;;3.47;;
7426;SDS011;3755;59.316;18.092;2022-10-31T02:11:54;6.63;;;2.73;;
7426;SDS011;3755;59.316;18.092;2022-10-31T02:14:24;6.37;;;2.90;;
7426;SDS011;3755;59.316;18.092;2022-10-31T02:16:54;7.20;;;3.13;;
7426;SDS011;3755;59.316;18.092;2022-10-31T02:19:26;10.87;;;3.17;;
7426;SDS011;3755;59.316;18.092;2022-10-31T02:22:02;7.40;;;3.13;;
7426;SDS011;3755;59.316;18.092;2022-10-31T02:24:40;7.80;;;3.03;;
7426;SDS011;3755;59.316;18.092;2022-10-31T02:27:26;7.03;;;2.70;;
7426;SDS011;3755;59.316;18.092;2022-10-31T02:30:35;7.97;;;3.17;;
7426;SDS011;3755;59.316;18.092;2022-10-31T02:33:11;7.13;;;2.80;;
7426;SDS011;3755;59.316;18.092;2022-10-31T02:35:51;8.70;;;3.37;;
7426;SDS011;3755;59.316;18.092;2022-10-31T02:38:36;8.47;;;3.50;;
7426;SDS011;3755;59.316;18.092;2022-10-31T02:41:10;5.13;;;3.07;;
7426;SDS011;3755;59.316;18.092;2022-10-31T02:43:49;7.40;;;3.13;;
7426;SDS011;3755;59.316;18.092;2022-10-31T02:46:26;9.63;;;3.60;;
7426;SDS011;3755;59.316;18.092;2022-10-31T02:49:02;8.30;;;3.10;;
7426;SDS011;3755;59.316;18.092;2022-10-31T02:51:32;5.93;;;3.00;;
7426;SDS011;3755;59.316;18.092;2022-10-31T02:54:00;7.30;;;3.00;;
7426;SDS011;3755;59.316;18.092;2022-10-31T02:56:29;9.07;;;3.30;;
7426;SDS011;3755;59.316;18.092;2022-10-31T02:58:57;4.83;;;3.20;;
7426;SDS011;3755;59.316;18.092;2022-10-31T03:01:33;8.27;;;3.33;;
7426;SDS011;3755;59.316;18.092;2022-10-31T03:07:12;8.80;;;3.43;;
7426;SDS011;3755;59.316;18.092;2022-10-31T03:09:46;9.03;;;4.10;;
7426;SDS011;3755;59.316;18.092;2022-10-31T03:12:25;8.70;;;4.00;;
7426;SDS011;3755;59.316;18.092;2022-10-31T03:14:56;12.40;;;3.40;;
7426;SDS011;3755;59.316;18.092;2022-10-31T03:17:31;8.13;;;3.73;;
7426;SDS011;3755;59.316;18.092;2022-10-31T03:20:06;9.23;;;3.67;;
7426;SDS011;3755;59.316;18.092;2022-10-31T03:22:37;7.80;;;3.37;;
7426;SDS011;3755;59.316;18.092;2022-10-31T03:25:11;8.77;;;3.40;;
7426;SDS011;3755;59.316;18.092;2022-10-31T03:27:40;12.57;;;3.73;;
7426;SDS011;3755;59.316;18.092;2022-10-31T03:30:09;6.50;;;3.70;;
7426;SDS011;3755;59.316;18.092;2022-10-31T03:32:40;10.63;;;4.03;;
7426;SDS011;3755;59.316;18.092;2022-10-31T03:35:15;10.53;;;3.70;;
7426;SDS011;3755;59.316;18.092;2022-10-31T03:37:45;7.90;;;3.00;;
7426;SDS011;3755;59.316;18.092;2022-10-31T03:40:15;9.00;;;3.80;;
7426;SDS011;3755;59.316;18.092;2022-10-31T03:42:46;8.33;;;3.20;;
7426;SDS011;3755;59.316;18.092;2022-10-31T03:45:20;14.30;;;3.77;;
7426;SDS011;3755;59.316;18.092;2022-10-31T03:47:51;8.63;;;2.80;;
7426;SDS011;3755;59.316;18.092;2022-10-31T03:50:21;6.37;;;3.03;;
7426;SDS011;3755;59.316;18.092;2022-10-31T03:52:54;10.43;;;3.10;;
7426;SDS011;3755;59.316;18.092;2022-10-31T03:55:26;7.83;;;3.30;;
7426;SDS011;3755;59.316;18.092;2022-10-31T03:57:58;7.87;;;3.17;;
7426;SDS011;3755;59.316;18.092;2022-10-31T04:00:29;7.57;;;3.17;;
7426;SDS011;3755;59.316;18.092;2022-10-31T04:03:00;6.37;;;2.70;;
7426;SDS011;3755;59.316;18.092;2022-10-31T04:05:33;8.00;;;2.73;;
7426;SDS011;3755;59.316;18.092;2022-10-31T04:08:04;11.30;;;3.13;;
7426;SDS011;3755;59.316;18.092;2022-10-31T04:10:34;13.37;;;4.00;;
7426;SDS011;3755;59.316;18.092;2022-10-31T04:13:04;8.63;;;3.27;;
7426;SDS011;3755;59.316;18.092;2022-10-31T04:15:36;11.23;;;3.60;;
7426;SDS011;3755;59.316;18.092;2022-10-31T04:18:06;12.50;;;3.57;;
7426;SDS011;3755;59.316;18.092;2022-10-31T04:20:40;17.63;;;4.63;;
7426;SDS011;3755;59.316;18.092;2022-10-31T04:23:13;15.40;;;3.70;;
7426;SDS011;3755;59.316;18.092;2022-10-31T04:25:47;16.20;;;3.87;;
7426;SDS011;3755;59.316;18.092;2022-10-31T04:28:14;15.13;;;4.80;;
7426;SDS011;3755;59.316;18.092;2022-10-31T04:30:41;13.70;;;4.50;;
7426;SDS011;3755;59.316;18.092;2022-10-31T04:33:08;13.13;;;4.13;;
7426;SDS011;3755;59.316;18.092;2022-10-31T04:35:37;14.10;;;4.13;;
7426;SDS011;3755;59.316;18.092;2022-10-31T04:38:05;16.00;;;4.83;;
7426;SDS011;3755;59.316;18.092;2022-10-31T04:40:32;11.10;;;3.90;;
7426;SDS011;3755;59.316;18.092;2022-10-31T04:43:02;14.17;;;4.07;;
7426;SDS011;3755;59.316;18.092;2022-10-31T04:45:30;18.53;;;4.40;;
7426;SDS011;3755;59.316;18.092;2022-10-31T04:47:57;16.83;;;5.10;;
7426;SDS011;3755;59.316;18.092;2022-10-31T04:50:25;14.37;;;4.97;;
7426;SDS011;3755;59.316;18.092;2022-10-31T04:53:44;17.73;;;4.73;;
7426;SDS011;3755;59.316;18.092;2022-10-31T04:56:11;20.43;;;6.23;;
7426;SDS011;3755;59.316;18.092;2022-10-31T04:58:38;15.33;;;5.27;;
7426;SDS011;3755;59.316;18.092;2022-10-31T05:01:07;20.47;;;5.67;;
7426;SDS011;3755;59.316;18.092;2022-10-31T05:03:34;15.73;;;5.93;;
7426;SDS011;3755;59.316;18.092;2022-10-31T05:06:04;20.77;;;5.80;;
7426;SDS011;3755;59.316;18.092;2022-10-31T05:08:32;21.52;;;6.28;;
7426;SDS011;3755;59.316;18.092;2022-10-31T05:11:09;26.60;;;6.70;;
7426;SDS011;3755;59.316;18.092;2022-10-31T05:13:38;20.10;;;6.13;;
7426;SDS011;3755;59.316;18.092;2022-10-31T05:16:06;17.87;;;5.90;;
7426;SDS011;3755;59.316;18.092;2022-10-31T05:18:35;23.70;;;6.43;;
7426;SDS011;3755;59.316;18.092;2022-10-31T05:21:03;25.10;;;7.23;;
7426;SDS011;3755;59.316;18.092;2022-10-31T05:23:31;34.27;;;7.70;;
7426;SDS011;3755;59.316;18.092;2022-10-31T05:25:58;41.67;;;6.93;;
7426;SDS011;3755;59.316;18.092;2022-10-31T05:28:27;40.23;;;7.73;;
7426;SDS011;3755;59.316;18.092;2022-10-31T05:30:56;38.57;;;6.93;;
7426;SDS011;3755;59.316;18.092;2022-10-31T05:33:26;41.00;;;7.43;;
7426;SDS011;3755;59.316;18.092;2022-10-31T05:35:56;38.70;;;7.33;;
7426;SDS011;3755;59.316;18.092;2022-10-31T05:38:23;41.43;;;7.67;;
7426;SDS011;3755;59.316;18.092;2022-10-31T05:40:53;59.77;;;8.13;;
7426;SDS011;3755;59.316;18.092;2022-10-31T05:43:32;31.57;;;6.43;;
7426;SDS011;3755;59.316;18.092;2022-10-31T05:46:13;42.33;;;7.13;;
7426;SDS011;3755;59.316;18.092;2022-10-31T05:48:50;34.07;;;6.80;;
7426;SDS011;3755;59.316;18.092;2022-10-31T05:51:18;38.87;;;7.03;;
7426;SDS011;3755;59.316;18.092;2022-10-31T05:53:46;22.73;;;6.00;;
7426;SDS011;3755;59.316;18.092;2022-10-31T05:56:27;30.43;;;6.43;;
7426;SDS011;3755;59.316;18.092;2022-10-31T05:58:57;25.83;;;5.97;;
7426;SDS011;3755;59.316;18.092;2022-10-31T06:01:28;34.92;;;6.20;;
7426;SDS011;3755;59.316;18.092;2022-10-31T06:03:55;10.47;;;4.60;;
7426;SDS011;3755;59.316;18.092;2022-10-31T06:06:24;23.33;;;4.97;;
7426;SDS011;3755;59.316;18.092;2022-10-31T06:12:03;19.80;;;4.93;;
7426;SDS011;3755;59.316;18.092;2022-10-31T06:14:46;17.57;;;4.97;;
7426;SDS011;3755;59.316;18.092;2022-10-31T06:17:15;14.60;;;4.73;;
7426;SDS011;3755;59.316;18.092;2022-10-31T06:19:44;18.60;;;4.10;;
7426;SDS011;3755;59.316;18.092;2022-10-31T06:22:19;27.20;;;4.87;;
7426;SDS011;3755;59.316;18.092;2022-10-31T06:24:47;30.05;;;4.57;;
7426;SDS011;3755;59.316;18.092;2022-10-31T06:27:30;14.10;;;4.57;;
7426;SDS011;3755;59.316;18.092;2022-10-31T06:30:18;19.53;;;4.53;;
7426;SDS011;3755;59.316;18.092;2022-10-31T06:36:01;24.07;;;5.43;;
7426;SDS011;3755;59.316;18.092;2022-10-31T06:38:33;27.50;;;4.97;;
7426;SDS011;3755;59.316;18.092;2022-10-31T06:41:02;30.00;;;5.38;;
7426;SDS011;3755;59.316;18.092;2022-10-31T06:43:46;28.65;;;5.13;;
7426;SDS011;3755;59.316;18.092;2022-10-31T06:46:19;25.40;;;4.97;;
7426;SDS011;3755;59.316;18.092;2022-10-31T06:48:47;25.48;;;5.43;;
7426;SDS011;3755;59.316;18.092;2022-10-31T06:51:37;27.13;;;5.55;;
7426;SDS011;3755;59.316;18.092;2022-10-31T06:54:21;20.23;;;4.97;;
7426;SDS011;3755;59.316;18.092;2022-10-31T06:57:03;23.67;;;5.45;;
7426;SDS011;3755;59.316;18.092;2022-10-31T06:59:45;19.42;;;5.35;;
7426;SDS011;3755;59.316;18.092;2022-10-31T07:02:28;27.50;;;5.45;;
7426;SDS011;3755;59.316;18.092;2022-10-31T07:05:09;27.25;;;4.95;;
7426;SDS011;3755;59.316;18.092;2022-10-31T07:08:03;12.30;;;4.88;;
7426;SDS011;3755;59.316;18.092;2022-10-31T07:10:50;25.97;;;6.23;;
7426;SDS011;3755;59.316;18.092;2022-10-31T07:13:35;11.00;;;5.00;;
7426;SDS011;3755;59.316;18.092;2022-10-31T07:16:22;18.13;;;5.70;;
7426;SDS011;3755;59.316;18.092;2022-10-31T07:19:11;19.35;;;6.28;;
7426;SDS011;3755;59.316;18.092;2022-10-31T07:21:54;12.90;;;5.87;;
7426;SDS011;3755;59.316;18.092;2022-10-31T07:24:38;12.83;;;5.67;;
7426;SDS011;3755;59.316;18.092;2022-10-31T07:27:38;16.17;;;6.07;;
7426;SDS011;3755;59.316;18.092;2022-10-31T07:30:49;18.07;;;6.07;;
7426;SDS011;3755;59.316;18.092;2022-10-31T08:03:18;19.80;;;7.43;;
7426;SDS011;3755;59.316;18.092;2022-10-31T08:06:54;14.55;;;7.22;;
7426;SDS011;3755;59.316;18.092;2022-10-31T08:09:48;17.40;;;7.88;;
7426;SDS011;3755;59.316;18.092;2022-10-31T08:19:18;17.60;;;7.53;;
7426;SDS011;3755;59.316;18.092;2022-10-31T08:25:08;18.50;;;7.90;;
7426;SDS011;3755;59.316;18.092;2022-10-31T08:27:54;23.73;;;9.10;;
7426;SDS011;3755;59.316;18.092;2022-10-31T08:31:00;19.58;;;7.57;;
7426;SDS011;3755;59.316;18.092;2022-10-31T08:33:43;21.55;;;9.55;;
7426;SDS011;3755;59.316;18.092;2022-10-31T09:06:02;26.70;;;8.83;;
7426;SDS011;3755;59.316;18.092;2022-10-31T09:11:31;19.35;;;8.40;;
7426;SDS011;3755;59.316;18.092;2022-10-31T09:14:33;19.75;;;8.63;;
7426;SDS011;3755;59.316;18.092;2022-10-31T10:50:08;13.85;;;8.27;;
7426;SDS011;3755;59.316;18.092;2022-10-31T10:52:57;19.75;;;8.93;;
7426;SDS011;3755;59.316;18.092;2022-10-31T10:55:47;13.40;;;8.00;;
7426;SDS011;3755;59.316;18.092;2022-10-31T10:58:41;19.65;;;9.38;;
7426;SDS011;3755;59.316;18.092;2022-10-31T11:01:23;17.33;;;9.38;;
7426;SDS011;3755;59.316;18.092;2022-10-31T11:04:14;14.32;;;8.50;;
7426;SDS011;3755;59.316;18.092;2022-10-31T11:14:03;17.27;;;9.40;;
7426;SDS011;3755;59.316;18.092;2022-10-31T11:16:55;19.25;;;9.57;;
7426;SDS011;3755;59.316;18.092;2022-10-31T11:19:59;13.23;;;8.38;;
7426;SDS011;3755;59.316;18.092;2022-10-31T11:23:05;13.00;;;9.00;;
7426;SDS011;3755;59.316;18.092;2022-10-31T11:26:16;13.43;;;7.97;;
7426;SDS011;3755;59.316;18.092;2022-10-31T11:32:33;14.63;;;8.27;;
7426;SDS011;3755;59.316;18.092;2022-10-31T11:35:15;13.90;;;8.90;;
7426;SDS011;3755;59.316;18.092;2022-10-31T11:38:00;13.00;;;8.88;;
7426;SDS011;3755;59.316;18.092;2022-10-31T11:41:03;18.02;;;9.80;;
7426;SDS011;3755;59.316;18.092;2022-10-31T11:43:53;15.82;;;9.38;;
7426;SDS011;3755;59.316;18.092;2022-10-31T11:46:46;17.45;;;9.40;;
7426;SDS011;3755;59.316;18.092;2022-10-31T12:25:45;17.15;;;8.30;;
7426;SDS011;3755;59.316;18.092;2022-10-31T12:28:48;16.17;;;9.65;;
7426;SDS011;3755;59.316;18.092;2022-10-31T12:32:15;15.50;;;7.75;;
7426;SDS011;3755;59.316;18.092;2022-10-31T12:35:25;16.33;;;8.25;;
7426;SDS011;3755;59.316;18.092;2022-10-31T12:38:18;15.75;;;8.35;;
7426;SDS011;3755;59.316;18.092;2022-10-31T12:41:11;14.70;;;7.93;;
7426;SDS011;3755;59.316;18.092;2022-10-31T12:43:56;14.70;;;7.82;;
7426;SDS011;3755;59.316;18.092;2022-10-31T12:47:12;14.38;;;8.77;;
7426;SDS011;3755;59.316;18.092;2022-10-31T12:50:31;14.45;;;8.07;;
7426;SDS011;3755;59.316;18.092;2022-10-31T12:53:51;19.35;;;7.88;;
7426;SDS011;3755;59.316;18.092;2022-10-31T13:03:28;11.20;;;6.35;;
7426;SDS011;3755;59.316;18.092;2022-10-31T13:06:15;12.95;;;6.93;;
7426;SDS011;3755;59.316;18.092;2022-10-31T13:09:02;12.85;;;6.57;;
7426;SDS011;3755;59.316;18.092;2022-10-31T13:11:45;12.63;;;6.55;;
7426;SDS011;3755;59.316;18.092;2022-10-31T13:14:20;9.52;;;5.88;;
7426;SDS011;3755;59.316;18.092;2022-10-31T13:16:53;13.07;;;6.75;;
7426;SDS011;3755;59.316;18.092;2022-10-31T13:52:38;13.18;;;5.95;;
7426;SDS011;3755;59.316;18.092;2022-10-31T13:55:38;12.93;;;7.03;;
7426;SDS011;3755;59.316;18.092;2022-10-31T13:58:25;10.02;;;6.63;;
7426;SDS011;3755;59.316;18.092;2022-10-31T14:01:15;12.80;;;5.63;;
7426;SDS011;3755;59.316;18.092;2022-10-31T14:04:13;12.05;;;5.95;;
7426;SDS011;3755;59.316;18.092;2022-10-31T14:07:29;14.52;;;6.45;;
7426;SDS011;3755;59.316;18.092;2022-10-31T14:33:26;9.15;;;5.72;;
7426;SDS011;3755;59.316;18.092;2022-10-31T14:36:33;11.93;;;6.10;;
7426;SDS011;3755;59.316;18.092;2022-10-31T14:43:10;10.70;;;5.75;;
7426;SDS011;3755;59.316;18.092;2022-10-31T14:46:18;8.90;;;6.03;;
7426;SDS011;3755;59.316;18.092;2022-10-31T15:34:15;12.82;;;5.45;;
7426;SDS011;3755;59.316;18.092;2022-10-31T15:37:07;10.35;;;6.20;;
7426;SDS011;3755;59.316;18.092;2022-10-31T15:40:18;12.57;;;5.72;;
7426;SDS011;3755;59.316;18.092;2022-10-31T15:43:03;12.32;;;6.30;;
7426;SDS011;3755;59.316;18.092;2022-10-31T15:45:46;11.82;;;6.70;;
7426;SDS011;3755;59.316;18.092;2022-10-31T15:48:36;15.07;;;6.35;;
7426;SDS011;3755;59.316;18.092;2022-10-31T16:01:23;13.38;;;7.30;;
7426;SDS011;3755;59.316;18.092;2022-10-31T16:04:53;12.98;;;7.78;;
7426;SDS011;3755;59.316;18.092;2022-10-31T16:07:47;15.05;;;7.78;;
7426;SDS011;3755;59.316;18.092;2022-10-31T16:10:49;11.48;;;6.50;;
7426;SDS011;3755;59.316;18.092;2022-10-31T16:13:30;10.35;;;6.10;;
7426;SDS011;3755;59.316;18.092;2022-10-31T16:16:20;12.90;;;7.05;;
7426;SDS011;3755;59.316;18.092;2022-10-31T16:19:14;11.52;;;6.57;;
7426;SDS011;3755;59.316;18.092;2022-10-31T16:22:28;12.18;;;6.68;;
7426;SDS011;3755;59.316;18.092;2022-10-31T16:25:39;12.88;;;5.75;;
7426;SDS011;3755;59.316;18.092;2022-10-31T16:28:24;11.82;;;6.40;;
7426;SDS011;3755;59.316;18.092;2022-10-31T16:37:54;14.70;;;6.82;;
7426;SDS011;3755;59.316;18.092;2022-10-31T16:40:40;11.82;;;5.97;;
7426;SDS011;3755;59.316;18.092;2022-10-31T16:43:22;11.35;;;6.43;;
7426;SDS011;3755;59.316;18.092;2022-10-31T16:49:14;12.13;;;6.57;;
7426;SDS011;3755;59.316;18.092;2022-10-31T16:54:39;10.88;;;7.30;;
7426;SDS011;3755;59.316;18.092;2022-10-31T16:57:10;15.68;;;7.32;;
7426;SDS011;3755;59.316;18.092;2022-10-31T16:59:44;9.75;;;6.30;;
7426;SDS011;3755;59.316;18.092;2022-10-31T17:02:23;15.35;;;7.05;;
7426;SDS011;3755;59.316;18.092;2022-10-31T17:05:08;12.27;;;6.18;;
7426;SDS011;3755;59.316;18.092;2022-10-31T17:08:03;13.38;;;6.30;;
7426;SDS011;3755;59.316;18.092;2022-10-31T17:10:33;11.23;;;6.18;;
7426;SDS011;3755;59.316;18.092;2022-10-31T17:13:00;13.70;;;7.07;;
7426;SDS011;3755;59.316;18.092;2022-10-31T17:15:32;13.60;;;6.38;;
7426;SDS011;3755;59.316;18.092;2022-10-31T17:18:09;13.38;;;6.88;;
7426;SDS011;3755;59.316;18.092;2022-10-31T17:20:42;14.07;;;6.60;;
7426;SDS011;3755;59.316;18.092;2022-10-31T17:23:14;17.05;;;7.22;;
7426;SDS011;3755;59.316;18.092;2022-10-31T17:25:51;11.93;;;6.15;;
7426;SDS011;3755;59.316;18.092;2022-10-31T17:28:36;12.70;;;6.03;;
7426;SDS011;3755;59.316;18.092;2022-10-31T17:31:10;12.32;;;5.75;;
7426;SDS011;3755;59.316;18.092;2022-10-31T17:34:01;10.32;;;6.13;;
7426;SDS011;3755;59.316;18.092;2022-10-31T17:36:33;11.52;;;6.22;;
7426;SDS011;3755;59.316;18.092;2022-10-31T17:39:01;15.70;;;5.80;;
7426;SDS011;3755;59.316;18.092;2022-10-31T17:41:32;16.67;;;6.93;;
7426;SDS011;3755;59.316;18.092;2022-10-31T17:44:00;10.77;;;5.28;;
7426;SDS011;3755;59.316;18.092;2022-10-31T17:46:29;11.75;;;5.63;;
7426;SDS011;3755;59.316;18.092;2022-10-31T17:49:00;12.30;;;5.53;;
7426;SDS011;3755;59.316;18.092;2022-10-31T17:51:29;11.43;;;5.45;;
7426;SDS011;3755;59.316;18.092;2022-10-31T17:53:57;15.40;;;6.00;;
7426;SDS011;3755;59.316;18.092;2022-10-31T17:56:26;10.32;;;4.82;;
7426;SDS011;3755;59.316;18.092;2022-10-31T17:58:57;15.25;;;6.45;;
7426;SDS011;3755;59.316;18.092;2022-10-31T18:01:29;10.63;;;5.50;;
7426;SDS011;3755;59.316;18.092;2022-10-31T18:03:56;12.02;;;5.93;;
7426;SDS011;3755;59.316;18.092;2022-10-31T18:06:26;12.45;;;5.32;;
7426;SDS011;3755;59.316;18.092;2022-10-31T18:08:54;10.07;;;5.82;;
7426;SDS011;3755;59.316;18.092;2022-10-31T18:11:22;10.85;;;5.63;;
7426;SDS011;3755;59.316;18.092;2022-10-31T18:13:53;11.65;;;5.65;;
7426;SDS011;3755;59.316;18.092;2022-10-31T18:16:24;11.98;;;6.03;;
7426;SDS011;3755;59.316;18.092;2022-10-31T18:18:55;10.93;;;5.93;;
7426;SDS011;3755;59.316;18.092;2022-10-31T18:21:26;8.48;;;4.70;;
7426;SDS011;3755;59.316;18.092;2022-10-31T18:23:53;10.05;;;4.35;;
7426;SDS011;3755;59.316;18.092;2022-10-31T18:26:21;11.18;;;5.45;;
7426;SDS011;3755;59.316;18.092;2022-10-31T18:28:50;12.07;;;5.32;;
7426;SDS011;3755;59.316;18.092;2022-10-31T18:31:17;9.15;;;4.75;;
7426;SDS011;3755;59.316;18.092;2022-10-31T18:33:46;5.40;;;4.13;;
7426;SDS011;3755;59.316;18.092;2022-10-31T18:36:13;8.90;;;4.45;;
7426;SDS011;3755;59.316;18.092;2022-10-31T18:38:41;12.20;;;4.60;;
7426;SDS011;3755;59.316;18.092;2022-10-31T18:41:10;10.80;;;4.45;;
7426;SDS011;3755;59.316;18.092;2022-10-31T18:43:38;8.63;;;4.90;;
7426;SDS011;3755;59.316;18.092;2022-10-31T18:46:07;10.35;;;4.10;;
7426;SDS011;3755;59.316;18.092;2022-10-31T18:48:35;7.60;;;4.85;;
7426;SDS011;3755;59.316;18.092;2022-10-31T18:51:07;9.15;;;4.63;;
7426;SDS011;3755;59.316;18.092;2022-10-31T18:53:35;8.88;;;4.03;;
7426;SDS011;3755;59.316;18.092;2022-10-31T18:56:05;10.40;;;4.05;;
7426;SDS011;3755;59.316;18.092;2022-10-31T18:58:33;10.65;;;4.88;;
7426;SDS011;3755;59.316;18.092;2022-10-31T19:01:05;7.18;;;3.85;;
7426;SDS011;3755;59.316;18.092;2022-10-31T19:03:34;12.60;;;4.50;;
7426;SDS011;3755;59.316;18.092;2022-10-31T19:06:09;8.43;;;4.22;;
7426;SDS011;3755;59.316;18.092;2022-10-31T19:08:54;9.00;;;3.97;;
7426;SDS011;3755;59.316;18.092;2022-10-31T19:11:38;9.95;;;4.20;;
7426;SDS011;3755;59.316;18.092;2022-10-31T19:14:08;10.73;;;5.13;;
7426;SDS011;3755;59.316;18.092;2022-10-31T19:16:51;11.90;;;4.30;;
7426;SDS011;3755;59.316;18.092;2022-10-31T19:19:19;6.97;;;4.07;;
7426;SDS011;3755;59.316;18.092;2022-10-31T19:22:06;7.20;;;4.05;;
7426;SDS011;3755;59.316;18.092;2022-10-31T19:24:47;11.32;;;4.65;;
7426;SDS011;3755;59.316;18.092;2022-10-31T19:27:15;9.50;;;4.85;;
7426;SDS011;3755;59.316;18.092;2022-10-31T19:29:43;9.45;;;4.75;;
7426;SDS011;3755;59.316;18.092;2022-10-31T19:32:10;12.00;;;4.70;;
7426;SDS011;3755;59.316;18.092;2022-10-31T19:34:44;8.02;;;4.47;;
7426;SDS011;3755;59.316;18.092;2022-10-31T19:37:12;7.97;;;4.63;;
7426;SDS011;3755;59.316;18.092;2022-10-31T19:39:53;14.20;;;4.88;;
7426;SDS011;3755;59.316;18.092;2022-10-31T19:42:22;10.38;;;4.53;;
7426;SDS011;3755;59.316;18.092;2022-10-31T19:44:51;8.63;;;4.55;;
7426;SDS011;3755;59.316;18.092;2022-10-31T19:47:22;11.52;;;4.00;;
7426;SDS011;3755;59.316;18.092;2022-10-31T19:49:50;9.32;;;4.35;;
7426;SDS011;3755;59.316;18.092;2022-10-31T19:52:36;7.95;;;4.55;;
7426;SDS011;3755;59.316;18.092;2022-10-31T19:55:04;12.10;;;4.80;;
7426;SDS011;3755;59.316;18.092;2022-10-31T19:57:33;11.13;;;4.40;;
7426;SDS011;3755;59.316;18.092;2022-10-31T20:00:01;14.93;;;4.60;;
7426;SDS011;3755;59.316;18.092;2022-10-31T20:02:34;8.52;;;4.22;;
7426;SDS011;3755;59.316;18.092;2022-10-31T20:05:03;9.68;;;4.75;;
7426;SDS011;3755;59.316;18.092;2022-10-31T20:07:32;12.35;;;4.60;;
7426;SDS011;3755;59.316;18.092;2022-10-31T20:10:02;12.80;;;5.03;;
7426;SDS011;3755;59.316;18.092;2022-10-31T20:12:33;10.55;;;5.03;;
7426;SDS011;3755;59.316;18.092;2022-10-31T20:15:01;9.40;;;4.82;;
7426;SDS011;3755;59.316;18.092;2022-10-31T20:17:43;11.93;;;4.70;;
7426;SDS011;3755;59.316;18.092;2022-10-31T20:20:11;12.00;;;5.03;;
7426;SDS011;3755;59.316;18.092;2022-10-31T20:22:41;7.57;;;4.93;;
7426;SDS011;3755;59.316;18.092;2022-10-31T20:25:15;10.43;;;4.90;;
7426;SDS011;3755;59.316;18.092;2022-10-31T20:27:58;11.82;;;5.45;;
7426;SDS011;3755;59.316;18.092;2022-10-31T20:30:26;11.23;;;4.90;;
7426;SDS011;3755;59.316;18.092;2022-10-31T20:33:01;12.35;;;4.68;;
7426;SDS011;3755;59.316;18.092;2022-10-31T20:35:28;12.88;;;4.93;;
7426;SDS011;3755;59.316;18.092;2022-10-31T20:37:57;11.98;;;4.82;;
7426;SDS011;3755;59.316;18.092;2022-10-31T20:41:03;15.40;;;5.25;;
7426;SDS011;3755;59.316;18.092;2022-10-31T20:43:45;11.00;;;5.30;;
7426;SDS011;3755;59.316;18.092;2022-10-31T20:46:16;9.60;;;4.95;;
7426;SDS011;3755;59.316;18.092;2022-10-31T20:49:00;10.07;;;5.20;;
7426;SDS011;3755;59.316;18.092;2022-10-31T20:51:27;12.73;;;5.18;;
7426;SDS011;3755;59.316;18.092;2022-10-31T20:53:56;12.27;;;5.40;;
7426;SDS011;3755;59.316;18.092;2022-10-31T20:56:26;11.67;;;4.60;;
7426;SDS011;3755;59.316;18.092;2022-10-31T20:58:54;10.18;;;5.30;;
7426;SDS011;3755;59.316;18.092;2022-10-31T21:01:23;11.68;;;4.95;;
7426;SDS011;3755;59.316;18.092;2022-10-31T21:03:54;13.53;;;5.43;;
7426;SDS011;3755;59.316;18.092;2022-10-31T21:06:36;10.63;;;4.82;;
7426;SDS011;3755;59.316;18.092;2022-10-31T21:09:06;7.85;;;4.28;;
7426;SDS011;3755;59.316;18.092;2022-10-31T21:11:56;10.88;;;4.60;;
7426;SDS011;3755;59.316;18.092;2022-10-31T21:14:28;13.30;;;5.50;;
7426;SDS011;3755;59.316;18.092;2022-10-31T21:16:55;12.80;;;5.10;;
7426;SDS011;3755;59.316;18.092;2022-10-31T21:19:24;11.65;;;5.35;;
7426;SDS011;3755;59.316;18.092;2022-10-31T21:21:55;14.60;;;4.85;;
7426;SDS011;3755;59.316;18.092;2022-10-31T21:24:23;13.70;;;5.47;;
7426;SDS011;3755;59.316;18.092;2022-10-31T21:26:54;10.77;;;5.13;;
7426;SDS011;3755;59.316;18.092;2022-10-31T21:29:27;17.40;;;4.90;;
7426;SDS011;3755;59.316;18.092;2022-10-31T21:31:54;13.52;;;5.43;;
7426;SDS011;3755;59.316;18.092;2022-10-31T21:34:21;12.43;;;5.20;;
7426;SDS011;3755;59.316;18.092;2022-10-31T21:36:49;9.50;;;4.55;;
7426;SDS011;3755;59.316;18.092;2022-10-31T21:39:17;13.43;;;5.10;;
7426;SDS011;3755;59.316;18.092;2022-10-31T21:41:45;13.82;;;5.13;;
7426;SDS011;3755;59.316;18.092;2022-10-31T21:44:17;8.85;;;5.45;;
7426;SDS011;3755;59.316;18.092;2022-10-31T21:46:45;11.23;;;5.18;;
7426;SDS011;3755;59.316;18.092;2022-10-31T21:49:13;12.60;;;5.20;;